Sizerock, KY (41762)

11:07 AM EDT on May 27, 2015 (GMT -0400)
KKYJACKS3 | | Change Station
CLOSE
Current Station
Personal Weather Station
Location: Talbert, KY
Elevation: 994 ft
Nearby Weather Stations

Elev 994 ft 37.41 °N, 83.42 °W | Updated 2 minutes ago

Overcast
Overcast
71.8 °F
Feels Like 71 °F
N
0.0
Wind Variable Wind from North
Gusts 0.0 mph

Today
High -- | Low -- °F
--% Chance of Precip.
Yesterday
High -- | Low -- °F
Precip. -- in
6:17 AM 8:44 PM
Waxing Gibbous, 68% visible
Pressure 30.26 in
Visibility 10.0 miles
Clouds Scattered Clouds 2100 ft
Mostly Cloudy 2900 ft
Overcast 3400 ft
Heat Index 71 °F
Dew Point 67 °F
Humidity 84%
Rainfall 0.00 in
Snow Depth Not available.
UV 2 out of 12
Pollen 6.60 out of 12
Air Quality Not available.
Flu Activity Sporadic
METAR KI35 271455Z AUTO 00000KT 10SM SCT021 BKN029 OVC034 22/16 A3026 RMK AO1

More Conditions Fewer Conditions

Pressure 30.26 in
Visibility 10.0 miles
Clouds Scattered Clouds 2100 ft
Mostly Cloudy 2900 ft
Overcast 3400 ft
Heat Index 71 °F
Dew Point 67 °F
Humidity 84%
Rainfall 0.00 in
Snow Depth Not available.
UV 2 out of 12
Pollen 6.60 out of 12
Air Quality Not available.
Flu Activity Sporadic
METAR KI35 271455Z AUTO 00000KT 10SM SCT021 BKN029 OVC034 22/16 A3026 RMK AO1

More Conditions Fewer Conditions

10-Day Weather Forecast

Almanac

Astronomy

May. 27, 2015 Rise Set
Actual Time
Civil Twilight
Nautical Twilight
Astronomical Twilight
Moon
Length of Visible Light
Length of Day
Tomorrow will be .
, % of the Moon is Illuminated

Today's Extremes

State Highs State Lows

Community

WunderPhotos

Upload Photos

1,824,695 photos uploaded!

WunderBlogs® & News

Nearby

Air Quality

  Air Quality AQ Index Pollutant
Not available.

Snow Depth

Station Depth Elevation

Earthquake Activity

City Distance Mag. Time & Date
Minimum magnitude displayed is 2.5.

Coastal Water Temperatures

Place Temperature

Stations

Nearby Weather Stations

Station Location Temp. Windchill Dew Point Humidity Wind Precip. Elev Updated Type